sensor_id;sensor_type;location;lat;lon;timestamp;pressure;altitude;pressure_sealevel;temperature;humidity
7178;BME280;3630;42.146;24.756;2023-02-10T00:01:46;101684.66;;;-2.36;62.26
7178;BME280;3630;42.146;24.756;2023-02-10T00:04:13;101685.34;;;-2.46;62.22
7178;BME280;3630;42.146;24.756;2023-02-10T00:06:40;101685.59;;;-2.52;62.06
7178;BME280;3630;42.146;24.756;2023-02-10T00:09:12;101685.47;;;-2.53;63.09
7178;BME280;3630;42.146;24.756;2023-02-10T00:11:39;101679.69;;;-2.52;62.69
7178;BME280;3630;42.146;24.756;2023-02-10T00:14:27;101653.59;;;-2.61;62.39
7178;BME280;3630;42.146;24.756;2023-02-10T00:16:55;101684.00;;;-2.51;62.35
7178;BME280;3630;42.146;24.756;2023-02-10T00:19:24;101661.28;;;-2.60;62.69
7178;BME280;3630;42.146;24.756;2023-02-10T00:21:51;101687.28;;;-2.44;62.50
7178;BME280;3630;42.146;24.756;2023-02-10T00:24:20;101695.66;;;-2.52;62.94
7178;BME280;3630;42.146;24.756;2023-02-10T00:26:47;101680.75;;;-2.50;62.87
7178;BME280;3630;42.146;24.756;2023-02-10T00:29:14;101683.41;;;-2.49;62.08
7178;BME280;3630;42.146;24.756;2023-02-10T00:31:41;101685.03;;;-2.49;62.86
7178;BME280;3630;42.146;24.756;2023-02-10T00:34:10;101677.47;;;-2.49;62.71
7178;BME280;3630;42.146;24.756;2023-02-10T00:36:37;101680.00;;;-2.49;62.39
7178;BME280;3630;42.146;24.756;2023-02-10T00:39:04;101673.94;;;-2.51;62.41
7178;BME280;3630;42.146;24.756;2023-02-10T00:41:32;101672.13;;;-2.52;62.40
7178;BME280;3630;42.146;24.756;2023-02-10T00:43:59;101663.69;;;-2.53;62.48
7178;BME280;3630;42.146;24.756;2023-02-10T00:46:26;101678.31;;;-2.57;62.49
7178;BME280;3630;42.146;24.756;2023-02-10T00:48:53;101678.50;;;-2.56;62.67
7178;BME280;3630;42.146;24.756;2023-02-10T00:51:19;101666.78;;;-2.55;62.69
7178;BME280;3630;42.146;24.756;2023-02-10T00:53:46;101669.78;;;-2.51;62.64
7178;BME280;3630;42.146;24.756;2023-02-10T00:56:15;101668.44;;;-2.47;62.39
7178;BME280;3630;42.146;24.756;2023-02-10T00:58:44;101666.50;;;-2.58;62.56
7178;BME280;3630;42.146;24.756;2023-02-10T01:01:11;101672.03;;;-2.45;62.39
7178;BME280;3630;42.146;24.756;2023-02-10T01:03:38;101671.59;;;-2.41;61.88
7178;BME280;3630;42.146;24.756;2023-02-10T01:06:06;101672.50;;;-2.41;62.02
7178;BME280;3630;42.146;24.756;2023-02-10T01:08:33;101625.34;;;-2.59;62.35
7178;BME280;3630;42.146;24.756;2023-02-10T01:11:01;101658.47;;;-2.30;62.23
7178;BME280;3630;42.146;24.756;2023-02-10T01:13:29;101658.66;;;-2.28;61.66
7178;BME280;3630;42.146;24.756;2023-02-10T01:15:57;101658.47;;;-2.30;62.37
7178;BME280;3630;42.146;24.756;2023-02-10T01:18:24;101650.16;;;-2.38;62.31
7178;BME280;3630;42.146;24.756;2023-02-10T01:20:51;101649.56;;;-2.35;62.07
7178;BME280;3630;42.146;24.756;2023-02-10T01:23:18;101627.38;;;-2.39;61.89
7178;BME280;3630;42.146;24.756;2023-02-10T01:25:44;101646.06;;;-2.28;62.07
7178;BME280;3630;42.146;24.756;2023-02-10T01:28:11;101644.00;;;-2.24;61.35
7178;BME280;3630;42.146;24.756;2023-02-10T01:30:38;101649.78;;;-2.16;61.30
7178;BME280;3630;42.146;24.756;2023-02-10T01:33:06;101641.88;;;-2.28;61.04
7178;BME280;3630;42.146;24.756;2023-02-10T01:35:37;101638.28;;;-2.39;61.42
7178;BME280;3630;42.146;24.756;2023-02-10T01:38:03;101638.28;;;-2.39;61.24
7178;BME280;3630;42.146;24.756;2023-02-10T01:40:30;101640.22;;;-2.45;61.93
7178;BME280;3630;42.146;24.756;2023-02-10T01:42:57;101648.94;;;-2.41;62.13
7178;BME280;3630;42.146;24.756;2023-02-10T01:45:27;101646.88;;;-2.45;62.18
7178;BME280;3630;42.146;24.756;2023-02-10T01:47:55;101641.78;;;-2.54;62.71
7178;BME280;3630;42.146;24.756;2023-02-10T01:50:27;101642.16;;;-2.42;62.53
7178;BME280;3630;42.146;24.756;2023-02-10T01:52:56;101635.44;;;-2.50;62.51
7178;BME280;3630;42.146;24.756;2023-02-10T01:55:26;101632.63;;;-2.53;62.93
7178;BME280;3630;42.146;24.756;2023-02-10T01:57:55;101641.84;;;-2.45;62.47
7178;BME280;3630;42.146;24.756;2023-02-10T02:00:24;101633.22;;;-2.47;62.67
7178;BME280;3630;42.146;24.756;2023-02-10T02:02:51;101635.91;;;-2.46;62.57
7178;BME280;3630;42.146;24.756;2023-02-10T02:05:38;101642.88;;;-2.43;62.80
7178;BME280;3630;42.146;24.756;2023-02-10T02:08:07;101634.91;;;-2.39;62.82
7178;BME280;3630;42.146;24.756;2023-02-10T02:11:01;101628.22;;;-2.39;62.82
7178;BME280;3630;42.146;24.756;2023-02-10T02:13:39;101625.88;;;-2.37;62.33
7178;BME280;3630;42.146;24.756;2023-02-10T02:16:14;101624.31;;;-2.52;63.07
7178;BME280;3630;42.146;24.756;2023-02-10T02:18:47;101615.31;;;-2.50;63.50
7178;BME280;3630;42.146;24.756;2023-02-10T02:21:39;101620.50;;;-2.49;63.10
7178;BME280;3630;42.146;24.756;2023-02-10T02:24:31;101612.81;;;-2.50;63.34
7178;BME280;3630;42.146;24.756;2023-02-10T02:27:28;101597.53;;;-2.52;63.20
7178;BME280;3630;42.146;24.756;2023-02-10T02:30:17;101608.81;;;-2.48;63.38
7178;BME280;3630;42.146;24.756;2023-02-10T02:32:53;101615.16;;;-2.52;63.86
7178;BME280;3630;42.146;24.756;2023-02-10T02:35:23;101606.28;;;-2.48;64.07
7178;BME280;3630;42.146;24.756;2023-02-10T02:37:52;101610.66;;;-2.63;64.84
7178;BME280;3630;42.146;24.756;2023-02-10T02:40:20;101611.69;;;-2.61;65.49
7178;BME280;3630;42.146;24.756;2023-02-10T02:42:47;101611.22;;;-2.65;66.04
7178;BME280;3630;42.146;24.756;2023-02-10T02:45:17;101600.22;;;-2.74;66.51
7178;BME280;3630;42.146;24.756;2023-02-10T02:48:02;101601.03;;;-2.67;66.69
7178;BME280;3630;42.146;24.756;2023-02-10T02:50:34;101603.38;;;-2.68;66.32
7178;BME280;3630;42.146;24.756;2023-02-10T02:53:11;101609.16;;;-2.69;66.08
7178;BME280;3630;42.146;24.756;2023-02-10T02:55:50;101606.34;;;-2.72;66.08
7178;BME280;3630;42.146;24.756;2023-02-10T02:58:28;101605.56;;;-2.71;66.01
7178;BME280;3630;42.146;24.756;2023-02-10T03:00:59;101601.31;;;-2.72;65.93
7178;BME280;3630;42.146;24.756;2023-02-10T03:03:32;101605.69;;;-2.78;66.41
7178;BME280;3630;42.146;24.756;2023-02-10T03:05:59;101610.88;;;-2.77;66.37
7178;BME280;3630;42.146;24.756;2023-02-10T03:08:28;101607.47;;;-2.77;66.74
7178;BME280;3630;42.146;24.756;2023-02-10T03:10:56;101598.47;;;-2.75;66.86
7178;BME280;3630;42.146;24.756;2023-02-10T03:13:23;101604.34;;;-2.83;66.56
7178;BME280;3630;42.146;24.756;2023-02-10T03:15:49;101604.59;;;-2.89;66.47
7178;BME280;3630;42.146;24.756;2023-02-10T03:18:16;101607.22;;;-2.96;66.28
7178;BME280;3630;42.146;24.756;2023-02-10T03:20:44;101602.75;;;-2.99;66.55
7178;BME280;3630;42.146;24.756;2023-02-10T03:23:11;101609.72;;;-2.96;66.67
7178;BME280;3630;42.146;24.756;2023-02-10T03:25:38;101607.66;;;-3.00;67.08
7178;BME280;3630;42.146;24.756;2023-02-10T03:28:05;101603.41;;;-2.92;67.03
7178;BME280;3630;42.146;24.756;2023-02-10T03:30:32;101606.31;;;-2.97;67.04
7178;BME280;3630;42.146;24.756;2023-02-10T03:32:59;101597.78;;;-2.90;66.75
7178;BME280;3630;42.146;24.756;2023-02-10T03:35:26;101602.66;;;-2.91;66.30
7178;BME280;3630;42.146;24.756;2023-02-10T03:37:54;101611.91;;;-2.99;66.05
7178;BME280;3630;42.146;24.756;2023-02-10T03:40:21;101601.72;;;-3.01;66.27
7178;BME280;3630;42.146;24.756;2023-02-10T03:42:48;101604.22;;;-3.01;66.02
7178;BME280;3630;42.146;24.756;2023-02-10T03:45:15;101607.31;;;-3.03;66.29
7178;BME280;3630;42.146;24.756;2023-02-10T03:47:41;101601.41;;;-3.04;66.05
7178;BME280;3630;42.146;24.756;2023-02-10T03:50:08;101598.81;;;-3.12;66.78
7178;BME280;3630;42.146;24.756;2023-02-10T03:52:35;101602.63;;;-3.16;66.77
7178;BME280;3630;42.146;24.756;2023-02-10T03:55:04;101598.13;;;-3.27;67.22
7178;BME280;3630;42.146;24.756;2023-02-10T03:57:31;101597.09;;;-3.29;67.25
7178;BME280;3630;42.146;24.756;2023-02-10T03:59:58;101600.34;;;-3.30;67.50
7178;BME280;3630;42.146;24.756;2023-02-10T04:02:25;101590.44;;;-3.28;67.58
7178;BME280;3630;42.146;24.756;2023-02-10T04:04:51;101595.16;;;-3.31;67.74
7178;BME280;3630;42.146;24.756;2023-02-10T04:07:18;101595.00;;;-3.33;68.12
7178;BME280;3630;42.146;24.756;2023-02-10T04:09:45;101596.28;;;-3.36;68.02
7178;BME280;3630;42.146;24.756;2023-02-10T04:12:13;101598.94;;;-3.35;67.85
7178;BME280;3630;42.146;24.756;2023-02-10T04:14:40;101598.91;;;-3.43;67.95
7178;BME280;3630;42.146;24.756;2023-02-10T04:17:06;101603.38;;;-3.41;67.83
7178;BME280;3630;42.146;24.756;2023-02-10T04:19:33;101591.13;;;-3.53;67.93
7178;BME280;3630;42.146;24.756;2023-02-10T04:22:00;101592.91;;;-3.52;67.89
7178;BME280;3630;42.146;24.756;2023-02-10T04:24:27;101596.06;;;-3.62;68.26
7178;BME280;3630;42.146;24.756;2023-02-10T04:26:53;101595.75;;;-3.65;68.50
7178;BME280;3630;42.146;24.756;2023-02-10T04:29:22;101593.34;;;-3.72;68.28
7178;BME280;3630;42.146;24.756;2023-02-10T04:31:49;101597.69;;;-3.78;68.51
7178;BME280;3630;42.146;24.756;2023-02-10T04:34:16;101591.41;;;-3.90;68.87
7178;BME280;3630;42.146;24.756;2023-02-10T04:36:42;101595.53;;;-3.91;68.55
7178;BME280;3630;42.146;24.756;2023-02-10T04:39:09;101596.91;;;-3.86;68.81
7178;BME280;3630;42.146;24.756;2023-02-10T04:41:36;101566.53;;;-3.96;68.46
7178;BME280;3630;42.146;24.756;2023-02-10T04:44:03;101598.50;;;-3.86;68.56
7178;BME280;3630;42.146;24.756;2023-02-10T04:46:32;101598.69;;;-3.85;68.13
7178;BME280;3630;42.146;24.756;2023-02-10T04:48:59;101600.69;;;-3.89;67.72
7178;BME280;3630;42.146;24.756;2023-02-10T04:51:25;101602.88;;;-3.92;67.89
7178;BME280;3630;42.146;24.756;2023-02-10T04:53:52;101600.13;;;-4.02;68.26
7178;BME280;3630;42.146;24.756;2023-02-10T04:56:19;101606.28;;;-4.07;67.92
7178;BME280;3630;42.146;24.756;2023-02-10T04:58:46;101608.03;;;-4.06;68.39
7178;BME280;3630;42.146;24.756;2023-02-10T05:01:12;101606.53;;;-4.13;68.71
7178;BME280;3630;42.146;24.756;2023-02-10T05:03:41;101617.28;;;-4.14;68.55
7178;BME280;3630;42.146;24.756;2023-02-10T05:06:09;101583.34;;;-4.26;68.02
7178;BME280;3630;42.146;24.756;2023-02-10T05:08:36;101609.59;;;-4.15;68.16
7178;BME280;3630;42.146;24.756;2023-02-10T05:11:06;101615.00;;;-4.20;68.51
7178;BME280;3630;42.146;24.756;2023-02-10T05:13:33;101608.53;;;-4.18;68.64
7178;BME280;3630;42.146;24.756;2023-02-10T05:15:59;101597.44;;;-4.20;68.61
7178;BME280;3630;42.146;24.756;2023-02-10T05:18:28;101601.78;;;-4.26;68.85
7178;BME280;3630;42.146;24.756;2023-02-10T05:20:56;101586.00;;;-4.25;68.75
7178;BME280;3630;42.146;24.756;2023-02-10T05:23:23;101601.41;;;-4.06;68.55
7178;BME280;3630;42.146;24.756;2023-02-10T05:25:51;101608.63;;;-4.09;68.54
7178;BME280;3630;42.146;24.756;2023-02-10T05:28:18;101618.16;;;-4.13;68.49
7178;BME280;3630;42.146;24.756;2023-02-10T05:30:45;101619.13;;;-4.20;68.63
7178;BME280;3630;42.146;24.756;2023-02-10T05:33:13;101603.75;;;-4.23;68.56
7178;BME280;3630;42.146;24.756;2023-02-10T05:35:40;101584.19;;;-4.41;68.98
7178;BME280;3630;42.146;24.756;2023-02-10T05:38:08;101613.22;;;-4.21;69.35
7178;BME280;3630;42.146;24.756;2023-02-10T05:40:35;101621.63;;;-4.20;69.16
7178;BME280;3630;42.146;24.756;2023-02-10T05:43:02;101618.81;;;-4.23;69.32
7178;BME280;3630;42.146;24.756;2023-02-10T05:45:29;101624.00;;;-4.22;69.40
7178;BME280;3630;42.146;24.756;2023-02-10T05:47:56;101621.41;;;-4.14;69.51
7178;BME280;3630;42.146;24.756;2023-02-10T05:50:23;101631.28;;;-4.16;68.55
7178;BME280;3630;42.146;24.756;2023-02-10T05:52:49;101633.16;;;-4.06;68.31
7178;BME280;3630;42.146;24.756;2023-02-10T05:55:18;101634.56;;;-4.01;68.28
7178;BME280;3630;42.146;24.756;2023-02-10T05:57:45;101621.34;;;-4.07;67.33
7178;BME280;3630;42.146;24.756;2023-02-10T06:00:13;101635.94;;;-3.96;67.09
7178;BME280;3630;42.146;24.756;2023-02-10T06:02:40;101638.59;;;-3.95;66.50
7178;BME280;3630;42.146;24.756;2023-02-10T06:05:07;101639.97;;;-3.90;66.19
7178;BME280;3630;42.146;24.756;2023-02-10T06:07:34;101637.78;;;-3.87;66.10
7178;BME280;3630;42.146;24.756;2023-02-10T06:10:01;101636.13;;;-3.79;65.95
7178;BME280;3630;42.146;24.756;2023-02-10T06:12:29;101639.09;;;-3.75;65.65
7178;BME280;3630;42.146;24.756;2023-02-10T06:14:56;101641.91;;;-3.40;65.21
7178;BME280;3630;42.146;24.756;2023-02-10T06:17:23;101643.53;;;-2.61;63.58
7178;BME280;3630;42.146;24.756;2023-02-10T06:19:51;101646.19;;;-2.60;60.70
7178;BME280;3630;42.146;24.756;2023-02-10T06:22:18;101641.81;;;-2.78;60.79
7178;BME280;3630;42.146;24.756;2023-02-10T06:24:45;101644.91;;;-2.80;61.06
7178;BME280;3630;42.146;24.756;2023-02-10T06:27:12;101647.91;;;-2.43;61.24
7178;BME280;3630;42.146;24.756;2023-02-10T06:29:41;101639.03;;;-2.07;58.98
7178;BME280;3630;42.146;24.756;2023-02-10T06:32:07;101658.25;;;-2.16;58.02
7178;BME280;3630;42.146;24.756;2023-02-10T06:34:34;101651.94;;;-2.36;59.07
7178;BME280;3630;42.146;24.756;2023-02-10T06:37:01;101661.66;;;-2.48;59.47
7178;BME280;3630;42.146;24.756;2023-02-10T06:39:28;101655.22;;;-2.62;59.90
7178;BME280;3630;42.146;24.756;2023-02-10T06:41:55;101653.38;;;-2.71;60.06
7178;BME280;3630;42.146;24.756;2023-02-10T06:44:23;101651.94;;;-2.69;59.90
7178;BME280;3630;42.146;24.756;2023-02-10T06:46:51;101655.88;;;-2.71;60.31
7178;BME280;3630;42.146;24.756;2023-02-10T06:49:18;101658.66;;;-2.77;60.66
7178;BME280;3630;42.146;24.756;2023-02-10T06:51:45;101659.47;;;-2.69;60.73
7178;BME280;3630;42.146;24.756;2023-02-10T06:54:11;101652.97;;;-2.67;61.14
7178;BME280;3630;42.146;24.756;2023-02-10T06:56:38;101655.34;;;-2.60;60.46
7178;BME280;3630;42.146;24.756;2023-02-10T06:59:07;101656.00;;;-2.54;60.44
7178;BME280;3630;42.146;24.756;2023-02-10T07:01:33;101647.44;;;-2.48;60.18
7178;BME280;3630;42.146;24.756;2023-02-10T07:04:02;101651.19;;;-2.35;59.49
7178;BME280;3630;42.146;24.756;2023-02-10T07:06:28;101646.19;;;-2.27;59.20
7178;BME280;3630;42.146;24.756;2023-02-10T07:08:55;101646.97;;;-2.19;59.41
7178;BME280;3630;42.146;24.756;2023-02-10T07:11:22;101635.44;;;-2.17;59.42
7178;BME280;3630;42.146;24.756;2023-02-10T07:13:49;101650.28;;;-2.12;59.30
7178;BME280;3630;42.146;24.756;2023-02-10T07:16:16;101627.25;;;-2.23;59.03
7178;BME280;3630;42.146;24.756;2023-02-10T07:18:42;101642.25;;;-2.08;59.10
7178;BME280;3630;42.146;24.756;2023-02-10T07:21:11;101642.56;;;-2.05;58.81
7178;BME280;3630;42.146;24.756;2023-02-10T07:23:37;101658.53;;;-2.13;58.37
7178;BME280;3630;42.146;24.756;2023-02-10T07:26:05;101638.38;;;-2.21;58.75
7178;BME280;3630;42.146;24.756;2023-02-10T07:28:32;101659.94;;;-1.99;58.79
7178;BME280;3630;42.146;24.756;2023-02-10T07:30:59;101661.88;;;-1.88;57.45
7178;BME280;3630;42.146;24.756;2023-02-10T07:33:26;101663.38;;;-1.90;55.84
7178;BME280;3630;42.146;24.756;2023-02-10T07:35:53;101657.53;;;-1.98;56.01
7178;BME280;3630;42.146;24.756;2023-02-10T07:38:22;101657.53;;;-1.98;55.13
7178;BME280;3630;42.146;24.756;2023-02-10T07:40:48;101658.03;;;-1.93;55.88
7178;BME280;3630;42.146;24.756;2023-02-10T07:43:15;101648.69;;;-1.86;56.12
7178;BME280;3630;42.146;24.756;2023-02-10T07:45:42;101651.22;;;-1.86;56.55
7178;BME280;3630;42.146;24.756;2023-02-10T07:48:09;101655.25;;;-1.79;56.29
7178;BME280;3630;42.146;24.756;2023-02-10T07:50:36;101647.25;;;-1.66;55.74
7178;BME280;3630;42.146;24.756;2023-02-10T07:53:03;101648.00;;;-1.59;55.21
7178;BME280;3630;42.146;24.756;2023-02-10T07:55:31;101649.66;;;-1.59;55.05
7178;BME280;3630;42.146;24.756;2023-02-10T07:57:58;101649.94;;;-1.56;54.84
7178;BME280;3630;42.146;24.756;2023-02-10T08:00:25;101641.63;;;-1.55;54.86
7178;BME280;3630;42.146;24.756;2023-02-10T08:02:52;101638.09;;;-1.49;55.09
7178;BME280;3630;42.146;24.756;2023-02-10T08:05:18;101648.31;;;-1.39;55.19
7178;BME280;3630;42.146;24.756;2023-02-10T08:07:45;101646.53;;;-1.31;53.82
7178;BME280;3630;42.146;24.756;2023-02-10T08:10:12;101640.91;;;-1.20;53.62
7178;BME280;3630;42.146;24.756;2023-02-10T08:12:40;101641.81;;;-1.11;53.53
7178;BME280;3630;42.146;24.756;2023-02-10T08:15:08;101638.38;;;-1.11;53.44
7178;BME280;3630;42.146;24.756;2023-02-10T08:17:34;101646.09;;;-1.01;53.72
7178;BME280;3630;42.146;24.756;2023-02-10T08:20:02;101643.13;;;-0.97;53.87
7178;BME280;3630;42.146;24.756;2023-02-10T08:22:29;101629.50;;;-0.99;53.99
7178;BME280;3630;42.146;24.756;2023-02-10T08:24:56;101631.22;;;-0.90;53.45
7178;BME280;3630;42.146;24.756;2023-02-10T08:27:23;101631.38;;;-0.80;53.13
7178;BME280;3630;42.146;24.756;2023-02-10T08:29:51;101639.97;;;-0.69;53.07
7178;BME280;3630;42.146;24.756;2023-02-10T08:32:18;101641.41;;;-0.63;52.09
7178;BME280;3630;42.146;24.756;2023-02-10T08:34:45;101642.91;;;-0.56;52.40
7178;BME280;3630;42.146;24.756;2023-02-10T08:37:13;101638.72;;;-0.47;52.64
7178;BME280;3630;42.146;24.756;2023-02-10T08:39:39;101642.25;;;-0.45;52.26
7178;BME280;3630;42.146;24.756;2023-02-10T08:42:06;101640.75;;;-0.34;51.46
7178;BME280;3630;42.146;24.756;2023-02-10T08:44:33;101633.25;;;-0.24;51.36
7178;BME280;3630;42.146;24.756;2023-02-10T08:47:02;101632.91;;;-0.10;51.64
7178;BME280;3630;42.146;24.756;2023-02-10T08:49:29;101630.09;;;-0.13;50.96
7178;BME280;3630;42.146;24.756;2023-02-10T08:51:56;101620.75;;;-0.14;51.29
7178;BME280;3630;42.146;24.756;2023-02-10T08:54:23;101629.03;;;-0.07;50.77
7178;BME280;3630;42.146;24.756;2023-02-10T08:56:53;101585.13;;;-0.26;51.07
7178;BME280;3630;42.146;24.756;2023-02-10T08:59:20;101630.28;;;0.07;51.41
7178;BME280;3630;42.146;24.756;2023-02-10T09:01:47;101630.09;;;0.14;50.88
7178;BME280;3630;42.146;24.756;2023-02-10T09:04:15;101630.69;;;0.12;49.82
7178;BME280;3630;42.146;24.756;2023-02-10T09:06:42;101582.53;;;-0.09;49.65
7178;BME280;3630;42.146;24.756;2023-02-10T09:09:10;101629.38;;;0.34;49.57
7178;BME280;3630;42.146;24.756;2023-02-10T09:11:38;101623.09;;;0.39;48.95
7178;BME280;3630;42.146;24.756;2023-02-10T09:14:05;101627.97;;;0.46;48.10
7178;BME280;3630;42.146;24.756;2023-02-10T09:16:32;101613.75;;;0.56;48.86
7178;BME280;3630;42.146;24.756;2023-02-10T09:18:59;101621.72;;;0.61;48.50
7178;BME280;3630;42.146;24.756;2023-02-10T09:21:27;101610.81;;;0.71;48.00
7178;BME280;3630;42.146;24.756;2023-02-10T09:23:54;101607.94;;;0.76;47.97
7178;BME280;3630;42.146;24.756;2023-02-10T09:26:21;101608.03;;;0.78;47.68
7178;BME280;3630;42.146;24.756;2023-02-10T09:28:48;101599.13;;;0.91;46.81
7178;BME280;3630;42.146;24.756;2023-02-10T09:31:15;101593.44;;;0.94;46.68
7178;BME280;3630;42.146;24.756;2023-02-10T09:33:43;101564.34;;;0.89;46.36
7178;BME280;3630;42.146;24.756;2023-02-10T09:36:13;101587.88;;;1.16;46.65
7178;BME280;3630;42.146;24.756;2023-02-10T09:38:42;101580.66;;;1.21;45.77
7178;BME280;3630;42.146;24.756;2023-02-10T09:41:17;101588.16;;;1.30;46.26
7178;BME280;3630;42.146;24.756;2023-02-10T09:43:57;101581.25;;;1.37;45.29
7178;BME280;3630;42.146;24.756;2023-02-10T09:46:38;101580.53;;;1.48;45.18
7178;BME280;3630;42.146;24.756;2023-02-10T09:49:17;101578.00;;;1.48;44.69
7178;BME280;3630;42.146;24.756;2023-02-10T09:51:53;101546.66;;;1.38;43.67
7178;BME280;3630;42.146;24.756;2023-02-10T09:54:25;101573.81;;;1.59;44.06
7178;BME280;3630;42.146;24.756;2023-02-10T09:56:57;101564.44;;;1.58;43.94
7178;BME280;3630;42.146;24.756;2023-02-10T09:59:24;101550.41;;;1.61;43.78
7178;BME280;3630;42.146;24.756;2023-02-10T10:01:54;101557.38;;;1.64;44.33
7178;BME280;3630;42.146;24.756;2023-02-10T10:04:22;101547.13;;;1.72;43.73
7178;BME280;3630;42.146;24.756;2023-02-10T10:06:50;101533.03;;;1.56;43.40
7178;BME280;3630;42.146;24.756;2023-02-10T10:09:27;101527.97;;;1.66;44.00
7178;BME280;3630;42.146;24.756;2023-02-10T10:11:58;101529.50;;;1.84;43.68
7178;BME280;3630;42.146;24.756;2023-02-10T10:14:27;101532.31;;;1.97;43.09
7178;BME280;3630;42.146;24.756;2023-02-10T10:17:06;101527.59;;;2.12;43.01
7178;BME280;3630;42.146;24.756;2023-02-10T10:19:51;101415.22;;;1.71;42.99
7178;BME280;3630;42.146;24.756;2023-02-10T10:22:30;101517.16;;;2.29;42.54
7178;BME280;3630;42.146;24.756;2023-02-10T10:25:27;101508.03;;;2.41;42.36
7178;BME280;3630;42.146;24.756;2023-02-10T10:28:04;101511.03;;;2.57;41.88
7178;BME280;3630;42.146;24.756;2023-02-10T10:30:40;101509.22;;;2.56;41.34
7178;BME280;3630;42.146;24.756;2023-02-10T10:33:26;101511.50;;;2.63;41.92
7178;BME280;3630;42.146;24.756;2023-02-10T10:35:55;101497.88;;;2.83;41.36
7178;BME280;3630;42.146;24.756;2023-02-10T10:38:29;101479.50;;;2.97;40.30
7178;BME280;3630;42.146;24.756;2023-02-10T10:41:01;101480.13;;;3.05;40.30
7178;BME280;3630;42.146;24.756;2023-02-10T10:43:31;101485.44;;;3.08;39.87
7178;BME280;3630;42.146;24.756;2023-02-10T10:46:02;101483.34;;;3.14;39.50
7178;BME280;3630;42.146;24.756;2023-02-10T10:48:31;101480.16;;;3.16;39.19
7178;BME280;3630;42.146;24.756;2023-02-10T10:51:00;101459.66;;;3.03;38.30
7178;BME280;3630;42.146;24.756;2023-02-10T10:53:36;101465.97;;;3.08;38.21
7178;BME280;3630;42.146;24.756;2023-02-10T10:56:12;101466.28;;;3.01;38.76
7178;BME280;3630;42.146;24.756;2023-02-10T10:58:42;101461.69;;;2.85;38.34
7178;BME280;3630;42.146;24.756;2023-02-10T11:01:10;101447.50;;;2.77;38.73
7178;BME280;3630;42.146;24.756;2023-02-10T11:03:37;101461.22;;;3.01;38.39
7178;BME280;3630;42.146;24.756;2023-02-10T11:06:08;101453.75;;;3.14;37.46
7178;BME280;3630;42.146;24.756;2023-02-10T11:08:38;101422.66;;;2.73;37.72
7178;BME280;3630;42.146;24.756;2023-02-10T11:11:10;101449.44;;;2.91;37.97
7178;BME280;3630;42.146;24.756;2023-02-10T11:13:39;101449.03;;;2.97;38.09
7178;BME280;3630;42.146;24.756;2023-02-10T11:16:09;101449.41;;;3.02;38.51
7178;BME280;3630;42.146;24.756;2023-02-10T11:18:38;101442.03;;;3.05;39.20
7178;BME280;3630;42.146;24.756;2023-02-10T11:21:06;101432.03;;;3.18;38.79
7178;BME280;3630;42.146;24.756;2023-02-10T11:23:45;101431.09;;;3.39;38.49
7178;BME280;3630;42.146;24.756;2023-02-10T11:26:20;101433.06;;;3.31;38.52
7178;BME280;3630;42.146;24.756;2023-02-10T11:28:48;101423.47;;;3.39;37.46
7178;BME280;3630;42.146;24.756;2023-02-10T11:31:30;101432.75;;;3.38;37.59
7178;BME280;3630;42.146;24.756;2023-02-10T11:34:02;101315.41;;;2.76;37.05
7178;BME280;3630;42.146;24.756;2023-02-10T11:36:33;101424.94;;;3.47;37.56
7178;BME280;3630;42.146;24.756;2023-02-10T11:39:03;101420.31;;;3.53;37.30
7178;BME280;3630;42.146;24.756;2023-02-10T11:41:32;101415.38;;;3.66;36.60
7178;BME280;3630;42.146;24.756;2023-02-10T11:44:00;101416.81;;;3.74;36.98
7178;BME280;3630;42.146;24.756;2023-02-10T11:46:29;101409.44;;;3.77;37.13
7178;BME280;3630;42.146;24.756;2023-02-10T11:48:58;101400.56;;;3.72;36.53
7178;BME280;3630;42.146;24.756;2023-02-10T11:51:27;101397.91;;;3.59;37.26
7178;BME280;3630;42.146;24.756;2023-02-10T11:53:55;101398.47;;;3.67;37.44
7178;BME280;3630;42.146;24.756;2023-02-10T11:56:24;101398.28;;;3.75;37.23
7178;BME280;3630;42.146;24.756;2023-02-10T11:59:16;101389.53;;;3.83;37.19
7178;BME280;3630;42.146;24.756;2023-02-10T12:01:53;101381.47;;;3.89;36.42
7178;BME280;3630;42.146;24.756;2023-02-10T12:04:54;101378.72;;;3.97;36.65
7178;BME280;3630;42.146;24.756;2023-02-10T12:07:31;101377.03;;;4.09;37.03
7178;BME280;3630;42.146;24.756;2023-02-10T12:10:03;101373.38;;;4.17;36.17
7178;BME280;3630;42.146;24.756;2023-02-10T12:12:39;101371.63;;;4.16;36.11
7178;BME280;3630;42.146;24.756;2023-02-10T12:15:17;101363.78;;;4.13;35.75
7178;BME280;3630;42.146;24.756;2023-02-10T12:17:55;101364.91;;;4.05;36.38
7178;BME280;3630;42.146;24.756;2023-02-10T12:20:32;101357.47;;;3.85;36.26
7178;BME280;3630;42.146;24.756;2023-02-10T12:23:24;101355.84;;;3.97;36.05
7178;BME280;3630;42.146;24.756;2023-02-10T12:25:55;101346.19;;;3.93;35.92
7178;BME280;3630;42.146;24.756;2023-02-10T12:28:33;101351.72;;;3.99;35.60
7178;BME280;3630;42.146;24.756;2023-02-10T12:31:12;101347.63;;;4.13;35.08
7178;BME280;3630;42.146;24.756;2023-02-10T12:33:48;101343.28;;;4.24;34.90
7178;BME280;3630;42.146;24.756;2023-02-10T12:36:27;101341.09;;;4.28;34.77
7178;BME280;3630;42.146;24.756;2023-02-10T12:39:04;101344.31;;;4.14;35.04
7178;BME280;3630;42.146;24.756;2023-02-10T12:41:39;101334.38;;;4.17;35.25
7178;BME280;3630;42.146;24.756;2023-02-10T12:44:23;101334.53;;;4.32;34.40
7178;BME280;3630;42.146;24.756;2023-02-10T12:47:06;101328.44;;;4.41;34.49
7178;BME280;3630;42.146;24.756;2023-02-10T12:49:46;101329.13;;;4.39;34.39
7178;BME280;3630;42.146;24.756;2023-02-10T12:52:19;101292.88;;;4.18;34.49
7178;BME280;3630;42.146;24.756;2023-02-10T12:54:50;101325.78;;;4.40;34.35
7178;BME280;3630;42.146;24.756;2023-02-10T12:57:24;101327.63;;;4.54;33.77
7178;BME280;3630;42.146;24.756;2023-02-10T12:59:56;101329.19;;;4.52;33.98
7178;BME280;3630;42.146;24.756;2023-02-10T13:02:32;101322.41;;;4.64;33.70
7178;BME280;3630;42.146;24.756;2023-02-10T13:05:06;101319.72;;;4.74;33.30
7178;BME280;3630;42.146;24.756;2023-02-10T13:07:40;101328.97;;;4.85;33.84
7178;BME280;3630;42.146;24.756;2023-02-10T13:10:18;101315.34;;;4.85;33.08
7178;BME280;3630;42.146;24.756;2023-02-10T13:12:48;101311.22;;;4.87;32.92
7178;BME280;3630;42.146;24.756;2023-02-10T13:15:23;101317.03;;;4.97;33.54
7178;BME280;3630;42.146;24.756;2023-02-10T13:17:52;101318.56;;;5.07;33.38